Peaseville, Vermont
Current Conditions -  °F | °C
As of 4:54 PM on Monday 20 Oct 2014 (Local Time) from KVSF Reporting Station
Broken Clouds Broken Clouds  
Wind Chill: 53°   Ceiling: 8500
Heat Index: 53°   Visibility: 10mi
Dew Point: 34°   Wind: 6mph
Humidity: 48%   Direction: 270°W
Pressure: 29.93"   Gusts: NA
Location:  43.2811°N, 72.6352°W
Report Text: KVSF 202054Z AUTO 27005KT 10SM BKN085 12/01 A2993 RMK AO2 SLP141 T01170011 56006
Loading
Personal Weather Stations






























Interactive Weather Map
Tropical Storm Tracking
New forecast layout! Learn more

10-Day Weather Forecast

Advertisements
Track Severe Weather on mobile